Ryuoh Maru No.2 — JM5900 — position and weather

sailwx.info

Track history (hours):
 
Tides and Currents Weather Stations Pressure Air Temp Water Temp Dewpoint Dewpoint Depression Visibility Wind Speed Wind Dir Waves Ship Positions

Ryuoh Maru No.2

Last reported at 2015-Jun-03 19:15 UTC. Time now 2015-Jul-01 21:08 UTC.
Position N 36°04' E 140°52'.
Warning: this ship's position is 28 days out of date.

Length 80 m; draft 4.2 m.

Type: Cargo ship. MMSI: 431401218.

Date/timePositionNaut miles runAvg speedWind from/ knotsBaromVisibWave heightAir tempDewpointWater temp
2015-Jun-03 19:15N 36°04' E 140°52'8 9.4
2015-Jun-03 18:22N 35°56' E 140°54'19 9.3
2015-Jun-03 16:18N 35°37' E 140°52'810.8
2015-Jun-03 15:31N 35°30' E 140°46'1410.9
2015-Jun-03 14:16N 35°19' E 140°36'1210.9
2015-Jun-03 13:08N 35°09' E 140°26'710.0
2015-Jun-03 12:28N 35°05' E 140°20'9 9.4
2015-Jun-03 11:34N 35°00' E 140°12'10 9.6
2015-Jun-03 10:34N 34°55' E 140°02'12 9.5
2015-Jun-03 09:19N 34°53' E 139°48'7 8.8
2015-Jun-03 08:33N 34°58' E 139°44'9 8.7
2015-Jun-03 07:33N 35°07' E 139°45'9 8.6
2015-Jun-03 06:33N 35°16' E 139°46'8 8.4
2015-Jun-03 05:34N 35°23' E 139°43'6 6.2
2015-Jun-03 04:34N 35°22' E 139°50'0 0.5
2015-Jun-03 03:34N 35°22' E 139°51'0 0.0
2015-Jun-03 02:34N 35°22' E 139°51'0 0.0
2015-Jun-03 01:34N 35°22' E 139°51'0 0.0
2015-Jun-03 00:34N 35°22' E 139°51'0 0.0
2015-Jun-02 23:34N 35°22' E 139°51'0 0.0
2015-Jun-02 22:33N 35°22' E 139°51'1 1.2
2015-Jun-02 21:33N 35°22' E 139°49'0 0.0
2015-Jun-02 20:33N 35°22' E 139°49'0 0.1
2015-Jun-02 19:33N 35°22' E 139°49'0 0.0
2015-Jun-02 18:30N 35°22' E 139°49'0 0.0
2015-Jun-02 17:33N 35°22' E 139°49'0 0.0
2015-Jun-02 16:33N 35°22' E 139°49'0 0.0
2015-Jun-02 15:33N 35°22' E 139°49'0 0.0
2015-Jun-02 14:34N 35°22' E 139°49'0 0.0
2015-Jun-02 13:33N 35°22' E 139°49'0 0.0
2015-Jun-02 12:34N 35°22' E 139°49'0 0.0
2015-Jun-02 11:33N 35°22' E 139°49'0 0.0
2015-Jun-02 10:33N 35°22' E 139°49'0 0.0
2015-Jun-02 09:33N 35°22' E 139°49'0 0.0
2015-Jun-02 08:33N 35°22' E 139°49'0 0.0
2015-Jun-02 07:33N 35°22' E 139°49'0 0.0
2015-Jun-02 06:34N 35°22' E 139°49'0 0.0
2015-Jun-02 05:33N 35°22' E 139°49'0 0.0
2015-Jun-02 04:33N 35°22' E 139°49'0 0.0
2015-Jun-02 03:33N 35°22' E 139°49'0 0.0
2015-Jun-02 02:33N 35°22' E 139°49'0 0.1
2015-Jun-02 01:33N 35°22' E 139°49'0 0.0
2015-Jun-02 00:33N 35°22' E 139°49'0 0.0
2015-Jun-01 23:33N 35°22' E 139°49'0 0.0
2015-Jun-01 22:33N 35°22' E 139°49'0 0.0
2015-Jun-01 21:33N 35°22' E 139°49'0 0.0
2015-Jun-01 20:33N 35°22' E 139°49'0 0.0
2015-Jun-01 19:33N 35°22' E 139°49'0 0.0
2015-Jun-01 18:33N 35°22' E 139°49'0 0.0
2015-Jun-01 17:33N 35°22' E 139°49'0 0.0
2015-Jun-01 16:33N 35°22' E 139°49'0 0.0
2015-Jun-01 15:33N 35°22' E 139°49'0 0.0
2015-Jun-01 14:33N 35°22' E 139°49'0 0.0
2015-Jun-01 13:33N 35°22' E 139°49'0 0.0
2015-Jun-01 12:33N 35°22' E 139°49'0 0.1
2015-Jun-01 11:33N 35°22' E 139°49'0 0.1
2015-Jun-01 10:33N 35°22' E 139°49'0 0.1
2015-Jun-01 09:33N 35°22' E 139°49'0 0.0
2015-Jun-01 08:33N 35°22' E 139°49'0 0.0
2015-Jun-01 07:33N 35°22' E 139°49'0 0.0
2015-Jun-01 06:33N 35°22' E 139°49'0 0.0
2015-Jun-01 05:33N 35°22' E 139°49'9 3.1
2015-Jun-01 02:33N 35°13' E 139°47'1010.2
2015-Jun-01 01:33N 35°04' E 139°44'9 9.0
2015-Jun-01 00:30N 34°54' E 139°46'9 9.9
2015-May-31 23:33N 34°52' E 139°57'10 9.9
2015-May-31 22:31N 34°57' E 140°08'1010.2
2015-May-31 21:33N 35°03' E 140°17'11 9.6
2015-May-31 20:25N 35°11' E 140°27'10 9.6
2015-May-31 19:23N 35°19' E 140°34'810.0
2015-May-31 18:33N 35°25' E 140°40'10 9.8
2015-May-31 17:33N 35°33' E 140°47'1010.1
2015-May-31 16:33N 35°41' E 140°55'1010.1
2015-May-31 15:33N 35°51' E 140°54'1110.6
2015-May-31 14:31N 36°02' E 140°52'1110.6
2015-May-31 13:31N 36°13' E 140°50'1310.2
2015-May-31 12:15N 36°25' E 140°53'810.8
2015-May-31 11:33N 36°33' E 140°55'  
2015-May-25 23:18N 36°47' E 141°01'10 9.8
2015-May-25 22:16N 36°37' E 140°57'7 9.8
2015-May-25 21:33N 36°31' E 140°55'10 9.8
2015-May-25 20:33N 36°21' E 140°52'10 9.8
2015-May-25 19:33N 36°11' E 140°51'10 9.8
2015-May-25 18:31N 36°02' E 140°53'14 9.6
2015-May-25 17:06N 35°48' E 140°55'6 9.6
2015-May-25 16:28N 35°42' E 140°56'10 9.5
2015-May-25 15:24N 35°34' E 140°49'910.4
2015-May-25 14:33N 35°27' E 140°42'1110.2
2015-May-25 13:31N 35°19' E 140°33'2310.0
2015-May-25 11:15N 35°02' E 140°14'6 8.9
2015-May-25 10:32N 34°59' E 140°07'9 8.9
2015-May-25 09:28N 34°54' E 139°58'11 8.0
2015-May-25 08:07N 34°56' E 139°45'6 9.3
2015-May-25 07:26N 35°02' E 139°43'910.1
2015-May-25 06:33N 35°11' E 139°46'1010.1
2015-May-25 05:33N 35°20' E 139°42'6 5.9
2015-May-25 04:33N 35°23' E 139°49'2 1.7
2015-May-25 03:33N 35°22' E 139°51'0 0.0
2015-May-25 02:33N 35°22' E 139°51'0 0.0
2015-May-25 01:33N 35°22' E 139°51'0 0.0
2015-May-25 00:30N 35°22' E 139°51'0 0.0
2015-May-24 23:33N 35°22' E 139°51'0 0.0
2015-May-24 22:33N 35°22' E 139°51'1 1.4
2015-May-24 21:31N 35°22' E 139°49'0 0.0
2015-May-24 20:32N 35°22' E 139°49'0 0.0
2015-May-24 19:31N 35°22' E 139°49'  
Track history (hours):
 
Tides and Currents Weather Stations Pressure Air Temp Water Temp Dewpoint Dewpoint Depression Visibility Wind Speed Wind Dir Waves Ship Positions

Ryuoh Maru No.2

Last reported at 2015-Jun-03 19:15 UTC. Time now 2015-Jul-01 21:08 UTC.
Position N 36°04' E 140°52'.
Warning: this ship's position is 28 days out of date.

Length 80 m; draft 4.2 m.

Type: Cargo ship. MMSI: 431401218.

Date/timePositionNaut miles runAvg speedWind from/ knotsBaromVisibWave heightAir tempDewpointWater temp
2015-Jun-03 19:15N 36°04' E 140°52'8 9.4
2015-Jun-03 18:22N 35°56' E 140°54'19 9.3
2015-Jun-03 16:18N 35°37' E 140°52'810.8
2015-Jun-03 15:31N 35°30' E 140°46'1410.9
2015-Jun-03 14:16N 35°19' E 140°36'1210.9
2015-Jun-03 13:08N 35°09' E 140°26'710.0
2015-Jun-03 12:28N 35°05' E 140°20'9 9.4
2015-Jun-03 11:34N 35°00' E 140°12'10 9.6
2015-Jun-03 10:34N 34°55' E 140°02'12 9.5
2015-Jun-03 09:19N 34°53' E 139°48'7 8.8
2015-Jun-03 08:33N 34°58' E 139°44'9 8.7
2015-Jun-03 07:33N 35°07' E 139°45'9 8.6
2015-Jun-03 06:33N 35°16' E 139°46'8 8.4
2015-Jun-03 05:34N 35°23' E 139°43'6 6.2
2015-Jun-03 04:34N 35°22' E 139°50'0 0.5
2015-Jun-03 03:34N 35°22' E 139°51'0 0.0
2015-Jun-03 02:34N 35°22' E 139°51'0 0.0
2015-Jun-03 01:34N 35°22' E 139°51'0 0.0
2015-Jun-03 00:34N 35°22' E 139°51'0 0.0
2015-Jun-02 23:34N 35°22' E 139°51'0 0.0
2015-Jun-02 22:33N 35°22' E 139°51'1 1.2
2015-Jun-02 21:33N 35°22' E 139°49'0 0.0
2015-Jun-02 20:33N 35°22' E 139°49'0 0.1
2015-Jun-02 19:33N 35°22' E 139°49'0 0.0
2015-Jun-02 18:30N 35°22' E 139°49'0 0.0
2015-Jun-02 17:33N 35°22' E 139°49'0 0.0
2015-Jun-02 16:33N 35°22' E 139°49'0 0.0
2015-Jun-02 15:33N 35°22' E 139°49'0 0.0
2015-Jun-02 14:34N 35°22' E 139°49'0 0.0
2015-Jun-02 13:33N 35°22' E 139°49'0 0.0
2015-Jun-02 12:34N 35°22' E 139°49'0 0.0
2015-Jun-02 11:33N 35°22' E 139°49'0 0.0
2015-Jun-02 10:33N 35°22' E 139°49'0 0.0
2015-Jun-02 09:33N 35°22' E 139°49'0 0.0
2015-Jun-02 08:33N 35°22' E 139°49'0 0.0
2015-Jun-02 07:33N 35°22' E 139°49'0 0.0
2015-Jun-02 06:34N 35°22' E 139°49'0 0.0
2015-Jun-02 05:33N 35°22' E 139°49'0 0.0
2015-Jun-02 04:33N 35°22' E 139°49'0 0.0
2015-Jun-02 03:33N 35°22' E 139°49'0 0.0
2015-Jun-02 02:33N 35°22' E 139°49'0 0.1
2015-Jun-02 01:33N 35°22' E 139°49'0 0.0
2015-Jun-02 00:33N 35°22' E 139°49'0 0.0
2015-Jun-01 23:33N 35°22' E 139°49'0 0.0
2015-Jun-01 22:33N 35°22' E 139°49'0 0.0
2015-Jun-01 21:33N 35°22' E 139°49'0 0.0
2015-Jun-01 20:33N 35°22' E 139°49'0 0.0
2015-Jun-01 19:33N 35°22' E 139°49'0 0.0
2015-Jun-01 18:33N 35°22' E 139°49'0 0.0
2015-Jun-01 17:33N 35°22' E 139°49'0 0.0
2015-Jun-01 16:33N 35°22' E 139°49'0 0.0
2015-Jun-01 15:33N 35°22' E 139°49'0 0.0
2015-Jun-01 14:33N 35°22' E 139°49'0 0.0
2015-Jun-01 13:33N 35°22' E 139°49'0 0.0
2015-Jun-01 12:33N 35°22' E 139°49'0 0.1
2015-Jun-01 11:33N 35°22' E 139°49'0 0.1
2015-Jun-01 10:33N 35°22' E 139°49'0 0.1
2015-Jun-01 09:33N 35°22' E 139°49'0 0.0
2015-Jun-01 08:33N 35°22' E 139°49'0 0.0
2015-Jun-01 07:33N 35°22' E 139°49'0 0.0
2015-Jun-01 06:33N 35°22' E 139°49'0 0.0
2015-Jun-01 05:33N 35°22' E 139°49'9 3.1
2015-Jun-01 02:33N 35°13' E 139°47'1010.2
2015-Jun-01 01:33N 35°04' E 139°44'9 9.0
2015-Jun-01 00:30N 34°54' E 139°46'9 9.9
2015-May-31 23:33N 34°52' E 139°57'10 9.9
2015-May-31 22:31N 34°57' E 140°08'1010.2
2015-May-31 21:33N 35°03' E 140°17'11 9.6
2015-May-31 20:25N 35°11' E 140°27'10 9.6
2015-May-31 19:23N 35°19' E 140°34'810.0
2015-May-31 18:33N 35°25' E 140°40'10 9.8
2015-May-31 17:33N 35°33' E 140°47'1010.1
2015-May-31 16:33N 35°41' E 140°55'1010.1
2015-May-31 15:33N 35°51' E 140°54'1110.6
2015-May-31 14:31N 36°02' E 140°52'1110.6
2015-May-31 13:31N 36°13' E 140°50'1310.2
2015-May-31 12:15N 36°25' E 140°53'810.8
2015-May-31 11:33N 36°33' E 140°55'  
2015-May-25 23:18N 36°47' E 141°01'10 9.8
2015-May-25 22:16N 36°37' E 140°57'7 9.8
2015-May-25 21:33N 36°31' E 140°55'10 9.8
2015-May-25 20:33N 36°21' E 140°52'10 9.8
2015-May-25 19:33N 36°11' E 140°51'10 9.8
2015-May-25 18:31N 36°02' E 140°53'14 9.6
2015-May-25 17:06N 35°48' E 140°55'6 9.6
2015-May-25 16:28N 35°42' E 140°56'10 9.5
2015-May-25 15:24N 35°34' E 140°49'910.4
2015-May-25 14:33N 35°27' E 140°42'1110.2
2015-May-25 13:31N 35°19' E 140°33'2310.0
2015-May-25 11:15N 35°02' E 140°14'6 8.9
2015-May-25 10:32N 34°59' E 140°07'9 8.9
2015-May-25 09:28N 34°54' E 139°58'11 8.0
2015-May-25 08:07N 34°56' E 139°45'6 9.3
2015-May-25 07:26N 35°02' E 139°43'910.1
2015-May-25 06:33N 35°11' E 139°46'1010.1
2015-May-25 05:33N 35°20' E 139°42'6 5.9
2015-May-25 04:33N 35°23' E 139°49'2 1.7
2015-May-25 03:33N 35°22' E 139°51'0 0.0
2015-May-25 02:33N 35°22' E 139°51'0 0.0
2015-May-25 01:33N 35°22' E 139°51'0 0.0
2015-May-25 00:30N 35°22' E 139°51'0 0.0
2015-May-24 23:33N 35°22' E 139°51'0 0.0
2015-May-24 22:33N 35°22' E 139°51'1 1.4
2015-May-24 21:31N 35°22' E 139°49'0 0.0
2015-May-24 20:32N 35°22' E 139°49'0 0.0
2015-May-24 19:31N 35°22' E 139°49'  

Dump ship's entire track history